Data for 11/11/2009

Time Sea-Level Adjusted Pressure Absolute Pressure Temperature Relative Humidity Dew Point   
(mb) (inHg) (mb) (inHg) (C) (F) (%) (C) (F)
00:05 1020 30.12 849 25.07 4.9 40.9 43 -6.7 20
00:10 1020 30.12 849 25.07 4.5 40 45 -6.6 20.1
00:15 1020 30.12 849 25.07 4.2 39.6 44 -6.9 19.6
00:20 1020 30.12 850 25.1 4.5 40.1 45 -6.6 20.2
00:25 1020 30.12 850 25.1 4.1 39.5 45 -6.6 20
00:30 1020 30.12 850 25.1 3.9 39.1 46 -6.6 20.1
00:35 1020 30.12 849 25.07 3.7 38.6 48 -6.4 20.4
00:40 1020 30.12 849 25.07 3.5 38.2 47 -6.7 19.9
00:45 1020 30.12 849 25.07 3.6 38.4 48 -6.5 20.3
00:50 1020 30.12 850 25.1 3.6 38.4 48 -6.5 20.3
00:55 1020 30.12 849 25.07 3.5 38.3 48 -6.4 20.6
01:00 1020 30.12 849 25.07 3.6 38.5 49 -6.1 20.9
01:05 1020 30.12 849 25.07 3.6 38.4 49 -6.2 20.9
01:10 1020 30.12 849 25.07 3.6 38.4 49 -6.2 20.9
01:15 1020 30.12 849 25.07 3.6 38.5 49 -6.1 21
01:20 1020 30.12 849 25.07 3.6 38.4 49 -6.1 21.1
01:25 1020 30.12 849 25.07 3.3 38 50 -6.1 21.1
01:30 1020 30.12 849 25.07 3.2 37.7 51 -5.9 21.3
01:35 1020 30.12 849 25.07 3.2 37.7 51 -6 21.2
01:40 1020 30.12 849 25.07 3.1 37.6 51 -6.1 21.1
01:45 1020 30.12 849 25.07 3.1 37.6 52 -5.9 21.3
01:50 1020 30.12 849 25.07 3.1 37.7 51 -6 21.2
01:55 1020 30.12 849 25.07 3 37.4 53 -5.6 21.9
02:00 1020 30.12 849 25.07 3 37.4 52 -5.8 21.5
02:05 1020 30.12 849 25.07 2.7 36.8 54 -5.9 21.5
02:10 1020 30.12 849 25.07 2.8 37 53 -6 21.3
02:15 1020 30.12 849 25.07 3 37.4 53 -5.8 21.6
02:20 1020 30.12 849 25.07 3.1 37.6 52 -5.8 21.6
02:25 1020 30.12 849 25.07 3.1 37.6 53 -5.6 22
02:30 1020 30.12 849 25.07 2.9 37.2 53 -5.7 21.8
02:35 1020 30.12 849 25.07 3 37.3 53 -5.7 21.8
02:40 1020 30.12 849 25.07 2.9 37.3 52 -5.9 21.4
02:45 1020 30.12 849 25.07 3.1 37.5 53 -5.6 21.9
02:50 1020 30.12 849 25.07 3 37.4 53 -5.7 21.7
02:55 1020 30.12 849 25.07 3.2 37.7 52 -5.8 21.6
03:00 1020 30.12 849 25.07 3.3 37.9 53 -5.4 22.2
03:05 1020 30.12 849 25.07 3.3 38 52 -5.5 22.1
03:10 1020 30.12 849 25.07 2.9 37.2 55 -5.4 22.4
03:15 1020 30.12 849 25.07 2.8 37 54 -5.6 21.9
03:20 1020 30.12 849 25.07 2.6 36.7 56 -5.4 22.4
03:25 1020 30.12 849 25.07 2.3 36.2 57 -5.3 22.4
03:30 1020 30.12 849 25.07 2.3 36.1 57 -5.3 22.4
03:35 1020 30.12 849 25.07 2.2 36 58 -5.3 22.4
03:40 1020 30.12 849 25.07 2.2 36 58 -5.3 22.5
03:45 1020 30.12 849 25.07 2 35.6 59 -5.2 22.6
03:50 1020 30.12 849 25.07 1.8 35.3 60 -5 22.9
03:55 1020 30.12 849 25.07 1.5 34.7 61 -5.2 22.7
04:00 1020 30.12 849 25.07 1.7 35 61 -5.2 22.7
04:05 1020 30.12 849 25.07 1.8 35.3 58 -5.4 22.2
04:10 1020 30.12 849 25.07 2.3 36.2 58 -5.1 22.8
04:15 1019 30.09 849 25.07 2.3 36.1 59 -5 23
04:20 1019 30.09 849 25.07 2.3 36.1 58 -5.1 22.7
04:25 1019 30.09 849 25.07 2.6 36.8 57 -5.1 22.8
04:30 1019 30.09 849 25.07 2.6 36.7 57 -5.1 22.9
04:35 1019 30.09 849 25.07 2.5 36.6 58 -5 23
04:40 1019 30.09 849 25.07 2.5 36.5 58 -5 23
04:45 1019 30.09 848 25.04 2.5 36.6 57 -5 22.9
04:50 1019 30.09 848 25.04 2.7 36.8 57 -5.1 22.8
04:55 1019 30.09 848 25.04 2.7 36.9 57 -5.1 22.9
05:00 1019 30.09 848 25.04 2.8 37 57 -5 23
05:05 1019 30.09 848 25.04 2.8 37.1 56 -5.1 22.9
05:10 1019 30.09 848 25.04 2.8 37.1 57 -5 23.1
05:15 1019 30.09 848 25.04 2.8 37 57 -4.9 23.1
05:20 1018 30.06 848 25.04 2.8 37 56 -5.1 22.9
05:25 1018 30.06 848 25.04 2.8 37.1 56 -5.1 22.9
05:30 1018 30.06 847 25.01 2.8 37 57 -5 23
05:35 1018 30.06 848 25.04 2.7 36.9 56 -5.2 22.7
05:40 1018 30.06 848 25.04 2.9 37.1 55 -5.3 22.5
05:45 1018 30.06 848 25.04 3.1 37.5 54 -5.3 22.5
05:50 1018 30.06 847 25.01 3.2 37.8 54 -5.3 22.5
05:55 1018 30.06 847 25.01 3.2 37.8 54 -5.2 22.6
06:00 1018 30.06 847 25.01 3.1 37.6 55 -5.2 22.7
06:05 1018 30.06 847 25.01 3.2 37.7 54 -5.3 22.4
06:10 1018 30.06 847 25.01 3.1 37.6 54 -5.3 22.4
06:15 1018 30.06 847 25.01 3.2 37.8 53 -5.4 22.2
06:20 1018 30.06 847 25.01 3.3 37.9 53 -5.3 22.4
06:25 1018 30.06 847 25.01 3.4 38.1 52 -5.6 21.9
06:30 1018 30.06 847 25.01 3.5 38.3 53 -5.3 22.5
06:35 1018 30.06 847 25.01 3.4 38.1 52 -5.5 22.1
06:40 1018 30.06 847 25.01 3.4 38.1 52 -5.5 22.2
06:45 1018 30.06 847 25.01 3.3 37.9 52 -5.6 22
06:50 1018 30.06 847 25.01 3.5 38.3 50 -5.8 21.5
06:55 1018 30.06 847 25.01 3.5 38.3 51 -5.7 21.7
07:00 1017 30.03 846 24.98 3.5 38.2 51 -5.7 21.7
07:05 1017 30.03 847 25.01 3.4 38.1 51 -5.8 21.5
07:10 1017 30.03 847 25.01 3.5 38.3 51 -5.8 21.5
07:15 1017 30.03 847 25.01 3.5 38.3 51 -5.8 21.6
07:20 1018 30.06 847 25.01 3.6 38.4 50 -5.8 21.6
07:25 1017 30.03 847 25.01 3.5 38.3 50 -5.9 21.3
07:30 1017 30.03 846 24.98 3.7 38.6 49 -6 21.3
07:35 1017 30.03 846 24.98 3.6 38.5 50 -5.7 21.7
07:40 1017 30.03 846 24.98 3.7 38.6 49 -5.9 21.3
07:45 1017 30.03 847 25.01 3.7 38.6 50 -5.8 21.5
07:50 1017 30.03 847 25.01 3.7 38.6 50 -5.7 21.7
07:55 1017 30.03 846 24.98 3.7 38.7 50 -5.8 21.5
08:00 1017 30.03 846 24.98 3.8 38.9 49 -5.8 21.5
08:05 1017 30.03 846 24.98 4.1 39.3 48 -6.1 21.1
08:10 1017 30.03 846 24.98 4.2 39.5 47 -6.2 20.8
08:15 1017 30.03 846 24.98 4.8 40.6 45 -6.2 20.8
08:20 1017 30.03 846 24.98 5.2 41.4 45 -5.9 21.4
08:25 1017 30.03 846 24.98 4.9 40.8 46 -5.9 21.4
08:30 1017 30.03 846 24.98 4.9 40.8 45 -5.9 21.3
08:35 1017 30.03 846 24.98 5 41 46 -5.6 21.9
08:40 1017 30.03 846 24.98 5.4 41.8 45 -5.5 22
08:45 1017 30.03 846 24.98 5.1 41.1 47 -5.2 22.6
08:50 1017 30.03 846 24.98 4.9 40.8 48 -5.1 22.9
08:55 1017 30.03 846 24.98 4.5 40.1 50 -5 23.1
09:00 1017 30.03 846 24.98 4.2 39.6 47 -6 21.2
09:05 1017 30.03 846 24.98 4.8 40.6 48 -5.3 22.5
09:10 1017 30.03 846 24.98 4.7 40.4 49 -5.2 22.7
09:15 1017 30.03 846 24.98 5 41 47 -5.3 22.5
09:20 1016 30 846 24.98 5.3 41.5 43 -6.1 20.9
09:25 1016 30 846 24.98 5.9 42.7 45 -5.2 22.6
09:30 1016 30 846 24.98 5.8 42.5 48 -4.5 23.9
09:35 1016 30 846 24.98 5.6 42.2 48 -4.6 23.8
09:40 1016 30 846 24.98 5.7 42.3 48 -4.4 24.1
09:45 1016 30 845 24.95 5.9 42.6 47 -4.4 24
09:50 1016 30 845 24.95 5.9 42.6 47 -4.6 23.7
09:55 1016 30 845 24.95 5.6 42.1 46 -5 23
10:00 1016 30 845 24.95 5.2 41.3 49 -4.7 23.5
10:05 1016 30 845 24.95 4.9 40.8 50 -4.7 23.5
10:10 1016 30 845 24.95 4.8 40.7 50 -4.7 23.5
10:15 1016 30 846 24.98 4.8 40.7 51 -4.5 23.9
10:20 1016 30 846 24.98 4.7 40.4 52 -4.4 24
10:25 1016 30 846 24.98 4.6 40.2 52 -4.3 24.2
10:30 1016 30 846 24.98 4.3 39.7 54 -4.3 24.3
10:35 1017 30.03 846 24.98 4 39.2 54 -4.3 24.2
10:40 1017 30.03 846 24.98 4 39.2 54 -4.5 23.9
10:45 1017 30.03 846 24.98 4.1 39.4 54 -4.5 23.9
10:50 1017 30.03 846 24.98 4.1 39.4 54 -4.4 24.1
10:55 1017 30.03 846 24.98 4.3 39.7 53 -4.4 24.1
11:00 1017 30.03 846 24.98 4.3 39.7 54 -4.3 24.3
11:05 1017 30.03 846 24.98 4.3 39.8 53 -4.5 23.9
11:10 1017 30.03 846 24.98 4 39.3 54 -4.4 24.1
11:15 1016 30 846 24.98 4.2 39.5 54 -4.4 24
11:20 1016 30 845 24.95 4 39.2 54 -4.6 23.7
11:25 1016 30 846 24.98 4.5 40.1 51 -4.7 23.5
11:30 1016 30 846 24.98 5 41 49 -4.7 23.5
11:35 1016 30 845 24.95 4.9 40.9 50 -4.5 23.9
11:40 1016 30 845 24.95 5.2 41.3 49 -4.7 23.5
11:45 1016 30 845 24.95 5.3 41.6 48 -4.8 23.4
11:50 1016 30 845 24.95 5.4 41.6 48 -4.7 23.6
11:55 1015 29.97 845 24.95 5.4 41.7 48 -4.9 23.3
12:00 1015 29.97 844 24.92 5.7 42.2 48 -4.5 23.8
12:05 1015 29.97 844 24.92 5.9 42.5 46 -4.7 23.5
12:10 1015 29.97 844 24.92 6.3 43.4 46 -4.5 23.9
12:15 1015 29.97 844 24.92 6.5 43.6 46 -4.4 24.1
12:20 1015 29.97 844 24.92 6.5 43.7 46 -4.3 24.3
12:25 1015 29.97 844 24.92 6.6 43.9 45 -4.4 24.1
12:30 1015 29.97 844 24.92 6.7 44 46 -4 24.8
12:35 1015 29.97 844 24.92 6.8 44.3 44 -4.7 23.6
12:40 1015 29.97 844 24.92 6.8 44.2 44 -4.6 23.7
12:45 1015 29.97 844 24.92 6.9 44.4 43 -4.7 23.5
12:50 1015 29.97 844 24.92 6.9 44.4 44 -4.4 24
12:55 1015 29.97 844 24.92 7 44.6 44 -4.3 24.3
13:00 1014 29.94 844 24.92 7.1 44.8 44 -4.5 23.9
13:05 1014 29.94 843 24.89 7.1 44.7 43 -4.6 23.8
13:10 1014 29.94 843 24.89 7.1 44.7 44 -4.5 24
13:15 1014 29.94 843 24.89 6.8 44.2 46 -4.1 24.6
13:20 1014 29.94 843 24.89 6.4 43.6 46 -4.3 24.3
13:25 1014 29.94 843 24.89 6.3 43.3 47 -4.3 24.2
13:30 1014 29.94 843 24.89 5.8 42.4 47 -4.7 23.6
13:35 1014 29.94 843 24.89 5.7 42.3 48 -4.5 23.9
13:40 1014 29.94 843 24.89 5.9 42.6 46 -4.9 23.3
13:45 1014 29.94 843 24.89 6.3 43.3 45 -4.9 23.2
13:50 1013 29.91 843 24.89 6.3 43.3 45 -4.7 23.6
13:55 1013 29.91 843 24.89 6.5 43.7 43 -5.1 22.9
14:00 1013 29.91 843 24.89 6.4 43.6 45 -4.6 23.7
14:05 1013 29.91 842 24.86 6.6 43.9 45 -4.6 23.7
14:10 1013 29.91 842 24.86 6.6 43.9 44 -4.8 23.3
14:15 1013 29.91 842 24.86 6.6 43.8 45 -4.6 23.7
14:20 1013 29.91 842 24.86 6.6 43.8 45 -4.6 23.7
14:25 1013 29.91 842 24.86 6.5 43.6 44 -4.9 23.3
14:30 1013 29.91 842 24.86 6.5 43.7 43 -5 22.9
14:35 1013 29.91 842 24.86 6.8 44.2 44 -4.8 23.4
14:40 1013 29.91 842 24.86 6.8 44.2 43 -4.8 23.3
14:45 1013 29.91 842 24.86 6.9 44.4 43 -4.8 23.3
14:50 1013 29.91 842 24.86 6.9 44.4 43 -4.9 23.1
14:55 1013 29.91 842 24.86 7.1 44.7 43 -4.7 23.6
15:00 1013 29.91 842 24.86 6.8 44.2 43 -4.9 23.2
15:05 1013 29.91 842 24.86 6.9 44.4 43 -4.8 23.3
15:10 1012 29.88 842 24.86 6.7 44 43 -4.9 23.2
15:15 1012 29.88 842 24.86 6.8 44.2 43 -4.9 23.1
15:20 1012 29.88 842 24.86 6.9 44.3 43 -4.8 23.4
15:25 1012 29.88 842 24.86 6.9 44.5 43 -4.9 23.2
15:30 1012 29.88 842 24.86 6.9 44.5 44 -4.5 23.9
15:35 1012 29.88 842 24.86 7.1 44.7 43 -4.7 23.5
15:40 1012 29.88 842 24.86 7.3 45.1 43 -4.6 23.8
15:45 1012 29.88 841 24.83 7.2 45 43 -4.4 24.1
15:50 1012 29.88 841 24.83 7.1 44.7 44 -4.5 23.9
15:55 1012 29.88 841 24.83 7 44.5 44 -4.5 23.9
16:00 1012 29.88 841 24.83 6.8 44.3 44 -4.6 23.8
16:05 1012 29.88 841 24.83 6.6 43.9 45 -4.5 23.9
16:10 1012 29.88 841 24.83 6.5 43.7 45 -4.4 24
16:15 1012 29.88 841 24.83 6.6 43.9 46 -4.3 24.3
16:20 1012 29.88 841 24.83 6.5 43.7 46 -4.3 24.2
16:25 1012 29.88 841 24.83 6.5 43.6 46 -4.3 24.3
16:30 1012 29.88 841 24.83 6.5 43.7 46 -4.3 24.3
16:35 1012 29.88 841 24.83 6.6 43.9 46 -4.2 24.5
16:40 1012 29.88 841 24.83 6.6 43.8 46 -4.3 24.2
16:45 1012 29.88 841 24.83 6.3 43.3 47 -4.1 24.6
16:50 1012 29.88 841 24.83 6.2 43.1 47 -4.3 24.2
16:55 1012 29.88 841 24.83 6.1 43 48 -4.2 24.4
17:00 1011 29.85 841 24.83 6.1 42.9 46 -4.6 23.8
17:05 1011 29.85 841 24.83 6.1 42.9 47 -4.3 24.3
17:10 1011 29.85 841 24.83 5.9 42.7 49 -3.9 25
17:15 1011 29.85 841 24.83 5.9 42.6 48 -4.2 24.5
17:20 1011 29.85 840 24.81 5.9 42.6 49 -4 24.7
17:25 1011 29.85 840 24.81 5.9 42.6 48 -4.3 24.2
17:30 1011 29.85 840 24.81 5.8 42.4 50 -3.7 25.3
17:35 1011 29.85 840 24.81 5.6 42.1 50 -4 24.8
17:40 1011 29.85 840 24.81 5.6 42 50 -4.2 24.5
17:45 1011 29.85 840 24.81 5.7 42.2 49 -4.2 24.5
17:50 1011 29.85 840 24.81 5.7 42.3 49 -4.1 24.6
17:55 1011 29.85 840 24.81 5.8 42.5 49 -4 24.8
18:00 1011 29.85 840 24.81 5.9 42.5 50 -3.9 25
18:05 1011 29.85 840 24.81 5.7 42.2 51 -3.6 25.6
18:10 1011 29.85 840 24.81 5.6 42 51 -3.7 25.4
18:15 1011 29.85 840 24.81 5.3 41.6 52 -3.7 25.4
18:20 1011 29.85 840 24.81 5.4 41.7 52 -3.6 25.5
18:25 1011 29.85 840 24.81 5.5 41.9 52 -3.5 25.6
18:30 1011 29.85 840 24.81 5.6 42.2 53 -3.3 26.1
18:35 1011 29.85 840 24.81 5.7 42.2 53 -3.3 26.1
18:40 1011 29.85 840 24.81 5.5 41.9 56 -2.7 27.2
18:45 1011 29.85 840 24.81 5.3 41.5 56 -2.7 27.1
18:50 1011 29.85 840 24.81 5.2 41.3 56 -2.8 26.9
18:55 1011 29.85 841 24.83 5.5 41.9 56 -2.6 27.3
19:00 1011 29.85 841 24.83 5.5 42 61 -1.4 29.4
19:05 1011 29.85 841 24.83 5.3 41.5 59 -2.1 28.2
19:10 1012 29.88 841 24.83 4.7 40.4 71 -0.1 31.7
19:15 1012 29.88 841 24.83 4.8 40.6 73 0.3 32.5
19:20 1012 29.88 841 24.83 5 41 72 0.5 32.8
19:25 1012 29.88 841 24.83 5.1 41.2 73 0.7 33.2
19:30 1012 29.88 841 24.83 4.9 40.9 73 0.4 32.7
19:35 1011 29.85 841 24.83 4.8 40.6 74 0.5 32.8
19:40 1011 29.85 841 24.83 4.7 40.5 75 0.6 33.1
19:45 1011 29.85 841 24.83 4.5 40.1 78 1 33.9
19:50 1011 29.85 841 24.83 4.3 39.8 76 0.5 32.9
19:55 1011 29.85 840 24.81 4.3 39.7 77 0.6 33
20:00 1011 29.85 840 24.81 4.3 39.7 78 0.8 33.4
20:05 1011 29.85 840 24.81 4.2 39.5 80 1 33.8
20:10 1011 29.85 840 24.81 4.1 39.3 83 1.4 34.5
20:15 1011 29.85 840 24.81 3.9 39.1 84 1.5 34.6
20:20 1011 29.85 840 24.81 3.8 38.8 81 0.9 33.6
20:25 1011 29.85 840 24.81 3.7 38.7 83 1 33.9
20:30 1011 29.85 840 24.81 3.5 38.4 85 1.3 34.3
20:35 1011 29.85 840 24.81 3.4 38.1 87 1.4 34.4
20:40 1010 29.83 840 24.81 3.1 37.5 87 1.2 34.1
20:45 1010 29.83 840 24.81 3 37.3 86 0.9 33.6
20:50 1010 29.83 839 24.78 2.9 37.2 90 1.4 34.6
20:55 1010 29.83 839 24.78 2.8 37 90 1.3 34.4
21:00 1010 29.83 839 24.78 2.7 36.8 91 1.3 34.4
21:05 1010 29.83 839 24.78 2.6 36.7 91 1.2 34.2
21:10 1010 29.83 839 24.78 2.6 36.7 91 1.3 34.3
21:15 1010 29.83 839 24.78 2.6 36.6 91 1.2 34.2
21:20 1010 29.83 839 24.78 2.6 36.6 91 1.3 34.3
21:25 1010 29.83 839 24.78 2.5 36.5 92 1.3 34.3
21:30 1010 29.83 839 24.78 2.4 36.4 92 1.3 34.3
21:35 1010 29.83 839 24.78 2.3 36.2 93 1.3 34.3
21:40 1010 29.83 839 24.78 2.2 36 93 1.3 34.3
21:45 1010 29.83 839 24.78 2.2 35.9 94 1.3 34.3
21:50 1010 29.83 839 24.78 2.1 35.8 94 1.2 34.2
21:55 1010 29.83 839 24.78 2.1 35.8 94 1.2 34.2
22:00 1010 29.83 839 24.78 2.1 35.7 95 1.3 34.4
22:05 1009 29.8 839 24.78 2 35.6 95 1.3 34.4
22:10 1009 29.8 839 24.78 1.9 35.5 95 1.3 34.3
22:15 1009 29.8 838 24.75 1.8 35.2 95 1.1 34
22:20 1009 29.8 838 24.75 1.7 35.1 96 1.1 34
22:25 1009 29.8 838 24.75 1.6 34.9 96 1 33.9
22:30 1009 29.8 838 24.75 1.6 34.9 96 1.1 33.9
22:35 1009 29.8 838 24.75 1.6 34.9 96 1.1 34
22:40 1009 29.8 838 24.75 1.6 34.9 96 1.1 33.9
22:45 1009 29.8 838 24.75 1.6 34.9 96 1.1 34
22:50 1009 29.8 838 24.75 1.6 34.9 96 1.1 33.9
22:55 1009 29.8 838 24.75 1.6 34.8 97 1.1 33.9
23:00 1009 29.8 838 24.75 1.5 34.7 97 1 33.8
23:05 1009 29.8 838 24.75 1.5 34.7 97 1.1 33.9
23:10 1009 29.8 838 24.75 1.5 34.8 97 1.1 33.9
23:15 1009 29.8 838 24.75 1.5 34.8 97 1.1 33.9
23:20 1009 29.8 838 24.75 1.6 34.8 97 1.2 34.1
23:25 1009 29.8 838 24.75 1.6 34.9 97 1.2 34.2
23:30 1009 29.8 838 24.75 1.6 34.9 97 1.2 34.2
23:35 1009 29.8 838 24.75 1.6 34.9 97 1.2 34.2
23:40 1009 29.8 838 24.75 1.7 35.1 97 1.4 34.5
23:45 1009 29.8 838 24.75 1.8 35.2 97 1.4 34.6
23:50 1009 29.8 838 24.75 1.9 35.5 97 1.5 34.8
23:55 1009 29.8 838 24.75 2 35.7 96 1.5 34.7
24:00 1009 29.8 838 24.75 2 35.7 97 1.6 34.8